sensor_id;sensor_type;location;lat;lon;timestamp;P1;durP1;ratioP1;P2;durP2;ratioP2
3171;SDS011;1597;51.572;6.992;2023-08-06T00:00:22;4.70;;;4.30;;
3171;SDS011;1597;51.572;6.992;2023-08-06T00:02:48;4.50;;;4.10;;
3171;SDS011;1597;51.572;6.992;2023-08-06T00:05:15;5.30;;;4.10;;
3171;SDS011;1597;51.572;6.992;2023-08-06T00:07:49;5.47;;;4.97;;
3171;SDS011;1597;51.572;6.992;2023-08-06T00:10:16;3.80;;;3.50;;
3171;SDS011;1597;51.572;6.992;2023-08-06T00:12:42;5.00;;;4.50;;
3171;SDS011;1597;51.572;6.992;2023-08-06T00:15:11;5.07;;;4.67;;
3171;SDS011;1597;51.572;6.992;2023-08-06T00:17:37;5.00;;;3.43;;
3171;SDS011;1597;51.572;6.992;2023-08-06T00:20:03;6.33;;;5.10;;
3171;SDS011;1597;51.572;6.992;2023-08-06T00:22:34;5.20;;;4.70;;
3171;SDS011;1597;51.572;6.992;2023-08-06T00:25:02;5.27;;;4.77;;
3171;SDS011;1597;51.572;6.992;2023-08-06T00:27:28;4.47;;;4.07;;
3171;SDS011;1597;51.572;6.992;2023-08-06T00:29:54;5.53;;;4.37;;
3171;SDS011;1597;51.572;6.992;2023-08-06T00:32:20;4.57;;;4.17;;
3171;SDS011;1597;51.572;6.992;2023-08-06T00:34:46;5.20;;;4.80;;
3171;SDS011;1597;51.572;6.992;2023-08-06T00:37:14;4.70;;;4.10;;
3171;SDS011;1597;51.572;6.992;2023-08-06T00:39:41;4.87;;;4.30;;
3171;SDS011;1597;51.572;6.992;2023-08-06T00:42:08;3.90;;;3.47;;
3171;SDS011;1597;51.572;6.992;2023-08-06T00:44:35;5.13;;;4.63;;
3171;SDS011;1597;51.572;6.992;2023-08-06T00:47:01;4.03;;;3.70;;
3171;SDS011;1597;51.572;6.992;2023-08-06T00:49:28;6.40;;;4.10;;
3171;SDS011;1597;51.572;6.992;2023-08-06T00:51:54;5.50;;;5.00;;
3171;SDS011;1597;51.572;6.992;2023-08-06T00:54:21;4.90;;;4.40;;
3171;SDS011;1597;51.572;6.992;2023-08-06T00:56:48;4.53;;;4.13;;
3171;SDS011;1597;51.572;6.992;2023-08-06T00:59:15;4.50;;;4.10;;
3171;SDS011;1597;51.572;6.992;2023-08-06T01:01:40;4.83;;;4.37;;
3171;SDS011;1597;51.572;6.992;2023-08-06T01:04:06;3.93;;;3.63;;
3171;SDS011;1597;51.572;6.992;2023-08-06T01:06:39;4.07;;;3.67;;
3171;SDS011;1597;51.572;6.992;2023-08-06T01:12:43;4.37;;;3.87;;
3171;SDS011;1597;51.572;6.992;2023-08-06T01:15:23;6.50;;;4.70;;
3171;SDS011;1597;51.572;6.992;2023-08-06T01:17:54;4.40;;;3.87;;
3171;SDS011;1597;51.572;6.992;2023-08-06T01:20:20;3.93;;;3.43;;
3171;SDS011;1597;51.572;6.992;2023-08-06T01:22:46;7.67;;;3.87;;
3171;SDS011;1597;51.572;6.992;2023-08-06T01:25:12;5.30;;;4.60;;
3171;SDS011;1597;51.572;6.992;2023-08-06T01:27:50;4.57;;;4.20;;
3171;SDS011;1597;51.572;6.992;2023-08-06T01:30:25;4.47;;;4.07;;
3171;SDS011;1597;51.572;6.992;2023-08-06T01:32:57;4.30;;;3.90;;
3171;SDS011;1597;51.572;6.992;2023-08-06T01:35:26;5.60;;;4.83;;
3171;SDS011;1597;51.572;6.992;2023-08-06T01:37:54;5.40;;;4.80;;
3171;SDS011;1597;51.572;6.992;2023-08-06T01:40:21;7.90;;;3.67;;
3171;SDS011;1597;51.572;6.992;2023-08-06T01:42:47;5.93;;;4.37;;
3171;SDS011;1597;51.572;6.992;2023-08-06T01:45:13;3.87;;;3.43;;
3171;SDS011;1597;51.572;6.992;2023-08-06T01:47:39;6.50;;;3.47;;
3171;SDS011;1597;51.572;6.992;2023-08-06T01:50:05;4.47;;;4.07;;
3171;SDS011;1597;51.572;6.992;2023-08-06T01:52:31;6.67;;;4.70;;
3171;SDS011;1597;51.572;6.992;2023-08-06T01:54:57;5.73;;;4.33;;
3171;SDS011;1597;51.572;6.992;2023-08-06T01:57:23;5.00;;;4.40;;
3171;SDS011;1597;51.572;6.992;2023-08-06T01:59:49;4.80;;;3.60;;
3171;SDS011;1597;51.572;6.992;2023-08-06T02:02:14;4.07;;;3.77;;
3171;SDS011;1597;51.572;6.992;2023-08-06T02:04:40;5.27;;;4.27;;
3171;SDS011;1597;51.572;6.992;2023-08-06T02:07:06;5.07;;;4.13;;
3171;SDS011;1597;51.572;6.992;2023-08-06T02:09:32;4.80;;;4.40;;
3171;SDS011;1597;51.572;6.992;2023-08-06T02:11:58;4.47;;;4.07;;
3171;SDS011;1597;51.572;6.992;2023-08-06T02:14:24;4.23;;;3.83;;
3171;SDS011;1597;51.572;6.992;2023-08-06T02:16:49;3.90;;;3.60;;
3171;SDS011;1597;51.572;6.992;2023-08-06T02:19:15;3.57;;;3.27;;
3171;SDS011;1597;51.572;6.992;2023-08-06T02:21:41;4.53;;;4.13;;
3171;SDS011;1597;51.572;6.992;2023-08-06T02:24:07;4.40;;;4.00;;
3171;SDS011;1597;51.572;6.992;2023-08-06T02:26:32;4.33;;;3.87;;
3171;SDS011;1597;51.572;6.992;2023-08-06T02:28:58;4.40;;;4.00;;
3171;SDS011;1597;51.572;6.992;2023-08-06T02:31:24;4.60;;;4.13;;
3171;SDS011;1597;51.572;6.992;2023-08-06T02:33:50;7.87;;;4.10;;
3171;SDS011;1597;51.572;6.992;2023-08-06T02:36:15;4.43;;;4.03;;
3171;SDS011;1597;51.572;6.992;2023-08-06T02:38:41;6.43;;;3.80;;
3171;SDS011;1597;51.572;6.992;2023-08-06T02:41:07;4.20;;;3.80;;
3171;SDS011;1597;51.572;6.992;2023-08-06T02:43:33;5.07;;;4.10;;
3171;SDS011;1597;51.572;6.992;2023-08-06T02:45:59;4.20;;;3.90;;
3171;SDS011;1597;51.572;6.992;2023-08-06T02:48:25;4.37;;;3.60;;
3171;SDS011;1597;51.572;6.992;2023-08-06T02:50:51;3.90;;;3.60;;
3171;SDS011;1597;51.572;6.992;2023-08-06T02:53:17;4.43;;;4.13;;
3171;SDS011;1597;51.572;6.992;2023-08-06T02:55:47;4.57;;;3.73;;
3171;SDS011;1597;51.572;6.992;2023-08-06T02:58:14;4.77;;;4.23;;
3171;SDS011;1597;51.572;6.992;2023-08-06T03:00:40;4.33;;;3.77;;
3171;SDS011;1597;51.572;6.992;2023-08-06T03:03:07;5.63;;;4.03;;
3171;SDS011;1597;51.572;6.992;2023-08-06T03:05:32;5.30;;;4.80;;
3171;SDS011;1597;51.572;6.992;2023-08-06T03:07:58;6.43;;;4.70;;
3171;SDS011;1597;51.572;6.992;2023-08-06T03:10:24;4.77;;;4.27;;
3171;SDS011;1597;51.572;6.992;2023-08-06T03:12:50;4.40;;;4.00;;
3171;SDS011;1597;51.572;6.992;2023-08-06T03:15:15;4.63;;;4.23;;
3171;SDS011;1597;51.572;6.992;2023-08-06T03:17:41;5.60;;;3.80;;
3171;SDS011;1597;51.572;6.992;2023-08-06T03:20:09;13.10;;;4.80;;
3171;SDS011;1597;51.572;6.992;2023-08-06T03:22:35;4.40;;;4.00;;
3171;SDS011;1597;51.572;6.992;2023-08-06T03:25:01;4.50;;;3.90;;
3171;SDS011;1597;51.572;6.992;2023-08-06T03:27:27;4.87;;;4.33;;
3171;SDS011;1597;51.572;6.992;2023-08-06T03:29:53;5.73;;;4.90;;
3171;SDS011;1597;51.572;6.992;2023-08-06T03:32:19;4.43;;;4.03;;
3171;SDS011;1597;51.572;6.992;2023-08-06T03:34:45;4.40;;;4.00;;
3171;SDS011;1597;51.572;6.992;2023-08-06T03:37:11;4.53;;;4.10;;
3171;SDS011;1597;51.572;6.992;2023-08-06T03:39:36;4.87;;;4.37;;
3171;SDS011;1597;51.572;6.992;2023-08-06T03:42:03;6.23;;;3.87;;
3171;SDS011;1597;51.572;6.992;2023-08-06T03:44:29;6.20;;;4.17;;
3171;SDS011;1597;51.572;6.992;2023-08-06T03:46:55;4.57;;;4.17;;
3171;SDS011;1597;51.572;6.992;2023-08-06T03:49:21;4.40;;;4.00;;
3171;SDS011;1597;51.572;6.992;2023-08-06T03:51:47;5.63;;;3.90;;
3171;SDS011;1597;51.572;6.992;2023-08-06T03:54:13;3.73;;;3.40;;
3171;SDS011;1597;51.572;6.992;2023-08-06T03:56:38;4.00;;;3.60;;
3171;SDS011;1597;51.572;6.992;2023-08-06T03:59:04;4.03;;;3.63;;
3171;SDS011;1597;51.572;6.992;2023-08-06T04:01:30;4.40;;;4.10;;
3171;SDS011;1597;51.572;6.992;2023-08-06T04:03:56;8.43;;;3.43;;
3171;SDS011;1597;51.572;6.992;2023-08-06T04:06:21;3.27;;;3.07;;
3171;SDS011;1597;51.572;6.992;2023-08-06T04:08:47;4.23;;;3.60;;
3171;SDS011;1597;51.572;6.992;2023-08-06T04:11:13;3.73;;;3.43;;
3171;SDS011;1597;51.572;6.992;2023-08-06T04:13:41;3.63;;;3.33;;
3171;SDS011;1597;51.572;6.992;2023-08-06T04:16:09;4.40;;;3.70;;
3171;SDS011;1597;51.572;6.992;2023-08-06T04:18:34;4.93;;;3.57;;
3171;SDS011;1597;51.572;6.992;2023-08-06T04:21:01;3.90;;;3.60;;
3171;SDS011;1597;51.572;6.992;2023-08-06T04:23:27;3.90;;;3.60;;
3171;SDS011;1597;51.572;6.992;2023-08-06T04:25:56;5.83;;;3.10;;
3171;SDS011;1597;51.572;6.992;2023-08-06T04:28:22;4.37;;;3.93;;
3171;SDS011;1597;51.572;6.992;2023-08-06T04:30:48;3.30;;;3.00;;
3171;SDS011;1597;51.572;6.992;2023-08-06T04:33:14;4.20;;;3.80;;
3171;SDS011;1597;51.572;6.992;2023-08-06T04:35:40;3.73;;;3.33;;
3171;SDS011;1597;51.572;6.992;2023-08-06T04:38:06;3.60;;;3.30;;
3171;SDS011;1597;51.572;6.992;2023-08-06T04:40:35;3.97;;;3.57;;
3171;SDS011;1597;51.572;6.992;2023-08-06T04:43:01;5.53;;;3.60;;
3171;SDS011;1597;51.572;6.992;2023-08-06T04:45:27;3.30;;;3.00;;
3171;SDS011;1597;51.572;6.992;2023-08-06T04:47:53;3.60;;;3.30;;
3171;SDS011;1597;51.572;6.992;2023-08-06T04:50:19;7.27;;;3.50;;
3171;SDS011;1597;51.572;6.992;2023-08-06T04:52:45;4.43;;;3.90;;
3171;SDS011;1597;51.572;6.992;2023-08-06T04:55:11;4.07;;;3.60;;
3171;SDS011;1597;51.572;6.992;2023-08-06T04:57:37;3.83;;;3.43;;
3171;SDS011;1597;51.572;6.992;2023-08-06T05:00:03;5.27;;;3.73;;
3171;SDS011;1597;51.572;6.992;2023-08-06T05:02:30;5.10;;;3.97;;
3171;SDS011;1597;51.572;6.992;2023-08-06T05:04:57;5.20;;;4.33;;
3171;SDS011;1597;51.572;6.992;2023-08-06T05:07:23;4.13;;;3.73;;
3171;SDS011;1597;51.572;6.992;2023-08-06T05:09:49;3.50;;;3.20;;
3171;SDS011;1597;51.572;6.992;2023-08-06T05:12:15;3.80;;;3.37;;
3171;SDS011;1597;51.572;6.992;2023-08-06T05:14:40;3.67;;;3.30;;
3171;SDS011;1597;51.572;6.992;2023-08-06T05:17:06;3.70;;;3.10;;
3171;SDS011;1597;51.572;6.992;2023-08-06T05:19:32;3.47;;;3.20;;
3171;SDS011;1597;51.572;6.992;2023-08-06T05:21:58;3.87;;;3.30;;
3171;SDS011;1597;51.572;6.992;2023-08-06T05:24:23;3.47;;;3.17;;
3171;SDS011;1597;51.572;6.992;2023-08-06T05:26:49;4.40;;;4.00;;
3171;SDS011;1597;51.572;6.992;2023-08-06T05:29:16;4.83;;;3.77;;
3171;SDS011;1597;51.572;6.992;2023-08-06T05:31:41;4.30;;;3.90;;
3171;SDS011;1597;51.572;6.992;2023-08-06T05:34:07;3.97;;;3.57;;
3171;SDS011;1597;51.572;6.992;2023-08-06T05:36:33;4.90;;;4.50;;
3171;SDS011;1597;51.572;6.992;2023-08-06T05:38:59;5.07;;;4.27;;
3171;SDS011;1597;51.572;6.992;2023-08-06T05:41:25;6.10;;;4.40;;
3171;SDS011;1597;51.572;6.992;2023-08-06T05:43:51;7.90;;;5.97;;
3171;SDS011;1597;51.572;6.992;2023-08-06T05:46:16;3.90;;;3.60;;
3171;SDS011;1597;51.572;6.992;2023-08-06T05:48:42;4.50;;;4.10;;
3171;SDS011;1597;51.572;6.992;2023-08-06T05:51:08;4.90;;;3.93;;
3171;SDS011;1597;51.572;6.992;2023-08-06T05:53:34;4.27;;;3.87;;
3171;SDS011;1597;51.572;6.992;2023-08-06T05:55:59;6.10;;;4.90;;
3171;SDS011;1597;51.572;6.992;2023-08-06T05:58:25;3.90;;;3.60;;
3171;SDS011;1597;51.572;6.992;2023-08-06T06:00:54;4.87;;;3.70;;
3171;SDS011;1597;51.572;6.992;2023-08-06T06:03:19;3.93;;;3.63;;
3171;SDS011;1597;51.572;6.992;2023-08-06T06:05:45;4.33;;;3.50;;
3171;SDS011;1597;51.572;6.992;2023-08-06T06:08:11;3.90;;;3.60;;
3171;SDS011;1597;51.572;6.992;2023-08-06T06:10:37;4.83;;;4.23;;
3171;SDS011;1597;51.572;6.992;2023-08-06T06:13:02;4.33;;;3.67;;
3171;SDS011;1597;51.572;6.992;2023-08-06T06:15:28;3.47;;;3.27;;
3171;SDS011;1597;51.572;6.992;2023-08-06T06:17:54;7.13;;;4.10;;
3171;SDS011;1597;51.572;6.992;2023-08-06T06:20:20;4.07;;;3.43;;
3171;SDS011;1597;51.572;6.992;2023-08-06T06:22:46;4.00;;;3.70;;
3171;SDS011;1597;51.572;6.992;2023-08-06T06:25:12;3.73;;;3.27;;
3171;SDS011;1597;51.572;6.992;2023-08-06T06:27:37;4.50;;;3.27;;
3171;SDS011;1597;51.572;6.992;2023-08-06T06:30:03;3.60;;;3.30;;
3171;SDS011;1597;51.572;6.992;2023-08-06T06:32:30;3.60;;;3.30;;
3171;SDS011;1597;51.572;6.992;2023-08-06T06:34:55;3.70;;;3.40;;
3171;SDS011;1597;51.572;6.992;2023-08-06T06:37:21;5.70;;;3.30;;
3171;SDS011;1597;51.572;6.992;2023-08-06T06:39:47;3.73;;;3.40;;
3171;SDS011;1597;51.572;6.992;2023-08-06T06:42:13;4.63;;;4.00;;
3171;SDS011;1597;51.572;6.992;2023-08-06T06:44:40;4.00;;;3.60;;
3171;SDS011;1597;51.572;6.992;2023-08-06T06:47:06;3.10;;;2.83;;
3171;SDS011;1597;51.572;6.992;2023-08-06T06:49:32;3.37;;;3.07;;
3171;SDS011;1597;51.572;6.992;2023-08-06T06:51:58;3.80;;;3.40;;
3171;SDS011;1597;51.572;6.992;2023-08-06T06:54:23;5.57;;;3.13;;
3171;SDS011;1597;51.572;6.992;2023-08-06T06:56:49;5.20;;;3.40;;
3171;SDS011;1597;51.572;6.992;2023-08-06T06:59:15;3.07;;;2.77;;
3171;SDS011;1597;51.572;6.992;2023-08-06T07:01:41;3.20;;;2.70;;
3171;SDS011;1597;51.572;6.992;2023-08-06T07:04:07;3.33;;;3.03;;
3171;SDS011;1597;51.572;6.992;2023-08-06T07:06:33;4.00;;;2.80;;
3171;SDS011;1597;51.572;6.992;2023-08-06T07:08:59;3.07;;;2.80;;
3171;SDS011;1597;51.572;6.992;2023-08-06T07:11:25;3.40;;;3.03;;
3171;SDS011;1597;51.572;6.992;2023-08-06T07:13:55;3.00;;;2.80;;
3171;SDS011;1597;51.572;6.992;2023-08-06T07:16:25;5.30;;;2.57;;
3171;SDS011;1597;51.572;6.992;2023-08-06T07:18:52;4.23;;;3.07;;
3171;SDS011;1597;51.572;6.992;2023-08-06T07:21:19;4.57;;;3.77;;
3171;SDS011;1597;51.572;6.992;2023-08-06T07:23:45;4.53;;;4.13;;
3171;SDS011;1597;51.572;6.992;2023-08-06T07:26:11;4.33;;;3.60;;
3171;SDS011;1597;51.572;6.992;2023-08-06T07:28:37;4.00;;;3.60;;
3171;SDS011;1597;51.572;6.992;2023-08-06T07:31:03;5.23;;;3.60;;
3171;SDS011;1597;51.572;6.992;2023-08-06T07:33:29;4.60;;;3.70;;
3171;SDS011;1597;51.572;6.992;2023-08-06T07:35:54;3.73;;;3.40;;
3171;SDS011;1597;51.572;6.992;2023-08-06T07:38:20;3.13;;;2.80;;
3171;SDS011;1597;51.572;6.992;2023-08-06T07:40:46;3.37;;;3.07;;
3171;SDS011;1597;51.572;6.992;2023-08-06T07:43:12;4.40;;;3.13;;
3171;SDS011;1597;51.572;6.992;2023-08-06T07:45:38;3.77;;;3.47;;
3171;SDS011;1597;51.572;6.992;2023-08-06T07:48:04;6.40;;;4.23;;
3171;SDS011;1597;51.572;6.992;2023-08-06T07:50:30;5.60;;;3.47;;
3171;SDS011;1597;51.572;6.992;2023-08-06T07:52:57;4.10;;;3.40;;
3171;SDS011;1597;51.572;6.992;2023-08-06T07:55:23;5.50;;;4.90;;
3171;SDS011;1597;51.572;6.992;2023-08-06T07:57:48;4.23;;;3.60;;
3171;SDS011;1597;51.572;6.992;2023-08-06T08:00:14;4.40;;;3.07;;
3171;SDS011;1597;51.572;6.992;2023-08-06T08:02:41;3.77;;;2.80;;
3171;SDS011;1597;51.572;6.992;2023-08-06T08:05:06;4.10;;;3.27;;
3171;SDS011;1597;51.572;6.992;2023-08-06T08:07:33;3.40;;;3.10;;
3171;SDS011;1597;51.572;6.992;2023-08-06T08:10:02;4.73;;;3.13;;
3171;SDS011;1597;51.572;6.992;2023-08-06T08:12:30;3.80;;;2.93;;
3171;SDS011;1597;51.572;6.992;2023-08-06T08:14:56;5.07;;;3.80;;
3171;SDS011;1597;51.572;6.992;2023-08-06T08:17:22;5.30;;;3.07;;
3171;SDS011;1597;51.572;6.992;2023-08-06T08:19:48;3.67;;;3.27;;
3171;SDS011;1597;51.572;6.992;2023-08-06T08:22:14;2.97;;;2.73;;
3171;SDS011;1597;51.572;6.992;2023-08-06T08:24:39;4.27;;;3.57;;
3171;SDS011;1597;51.572;6.992;2023-08-06T08:27:05;2.97;;;2.70;;
3171;SDS011;1597;51.572;6.992;2023-08-06T08:29:31;3.80;;;3.40;;
3171;SDS011;1597;51.572;6.992;2023-08-06T08:31:57;4.33;;;3.37;;
3171;SDS011;1597;51.572;6.992;2023-08-06T08:34:23;3.63;;;3.33;;
3171;SDS011;1597;51.572;6.992;2023-08-06T08:36:49;4.13;;;3.73;;
3171;SDS011;1597;51.572;6.992;2023-08-06T08:39:15;4.87;;;3.00;;
3171;SDS011;1597;51.572;6.992;2023-08-06T08:41:41;3.70;;;3.30;;
3171;SDS011;1597;51.572;6.992;2023-08-06T08:44:08;3.47;;;3.27;;
3171;SDS011;1597;51.572;6.992;2023-08-06T08:46:38;3.83;;;3.47;;
3171;SDS011;1597;51.572;6.992;2023-08-06T08:49:06;3.80;;;3.40;;
3171;SDS011;1597;51.572;6.992;2023-08-06T08:51:35;3.70;;;3.40;;
3171;SDS011;1597;51.572;6.992;2023-08-06T08:54:04;4.40;;;3.90;;
3171;SDS011;1597;51.572;6.992;2023-08-06T08:56:33;4.03;;;3.70;;
3171;SDS011;1597;51.572;6.992;2023-08-06T08:58:59;5.43;;;5.00;;
3171;SDS011;1597;51.572;6.992;2023-08-06T09:01:25;4.60;;;4.20;;
3171;SDS011;1597;51.572;6.992;2023-08-06T09:03:53;4.83;;;4.37;;
3171;SDS011;1597;51.572;6.992;2023-08-06T09:06:21;5.50;;;5.00;;
3171;SDS011;1597;51.572;6.992;2023-08-06T09:09:08;4.80;;;4.30;;
3171;SDS011;1597;51.572;6.992;2023-08-06T09:11:45;4.37;;;3.67;;
3171;SDS011;1597;51.572;6.992;2023-08-06T09:14:14;6.10;;;4.43;;
3171;SDS011;1597;51.572;6.992;2023-08-06T09:16:40;5.67;;;3.30;;
3171;SDS011;1597;51.572;6.992;2023-08-06T09:19:10;6.80;;;4.57;;
3171;SDS011;1597;51.572;6.992;2023-08-06T09:21:38;5.73;;;4.40;;
3171;SDS011;1597;51.572;6.992;2023-08-06T09:24:08;4.70;;;3.40;;
3171;SDS011;1597;51.572;6.992;2023-08-06T09:26:39;5.20;;;3.93;;
3171;SDS011;1597;51.572;6.992;2023-08-06T09:29:06;4.57;;;3.87;;
3171;SDS011;1597;51.572;6.992;2023-08-06T09:36:53;5.97;;;5.37;;
3171;SDS011;1597;51.572;6.992;2023-08-06T09:39:20;4.50;;;4.10;;
3171;SDS011;1597;51.572;6.992;2023-08-06T09:41:58;4.40;;;4.00;;
3171;SDS011;1597;51.572;6.992;2023-08-06T09:44:27;8.50;;;7.13;;
3171;SDS011;1597;51.572;6.992;2023-08-06T09:46:55;6.43;;;4.90;;
3171;SDS011;1597;51.572;6.992;2023-08-06T09:49:26;5.40;;;4.87;;
3171;SDS011;1597;51.572;6.992;2023-08-06T09:51:59;14.40;;;12.90;;
3171;SDS011;1597;51.572;6.992;2023-08-06T09:54:26;9.13;;;8.23;;
3171;SDS011;1597;51.572;6.992;2023-08-06T09:56:54;5.30;;;4.80;;
3171;SDS011;1597;51.572;6.992;2023-08-06T09:59:20;5.47;;;5.10;;
3171;SDS011;1597;51.572;6.992;2023-08-06T10:01:46;5.27;;;4.77;;
3171;SDS011;1597;51.572;6.992;2023-08-06T10:04:13;6.33;;;5.03;;
3171;SDS011;1597;51.572;6.992;2023-08-06T10:06:42;9.13;;;7.07;;
3171;SDS011;1597;51.572;6.992;2023-08-06T10:09:08;9.37;;;8.47;;
3171;SDS011;1597;51.572;6.992;2023-08-06T10:11:36;6.83;;;5.80;;
3171;SDS011;1597;51.572;6.992;2023-08-06T10:14:27;7.87;;;7.27;;
3171;SDS011;1597;51.572;6.992;2023-08-06T10:16:58;9.60;;;8.63;;
3171;SDS011;1597;51.572;6.992;2023-08-06T10:19:25;9.23;;;8.43;;
3171;SDS011;1597;51.572;6.992;2023-08-06T10:22:13;9.63;;;8.83;;
3171;SDS011;1597;51.572;6.992;2023-08-06T10:27:28;11.73;;;8.80;;
3171;SDS011;1597;51.572;6.992;2023-08-06T10:32:52;8.10;;;7.40;;
3171;SDS011;1597;51.572;6.992;2023-08-06T10:35:31;9.63;;;8.10;;
3171;SDS011;1597;51.572;6.992;2023-08-06T10:40:41;8.87;;;7.93;;
3171;SDS011;1597;51.572;6.992;2023-08-06T10:43:52;12.47;;;8.63;;
3171;SDS011;1597;51.572;6.992;2023-08-06T10:46:21;13.30;;;10.03;;
3171;SDS011;1597;51.572;6.992;2023-08-06T10:48:50;10.90;;;9.50;;
3171;SDS011;1597;51.572;6.992;2023-08-06T10:51:16;10.07;;;9.10;;
3171;SDS011;1597;51.572;6.992;2023-08-06T10:53:45;11.10;;;10.00;;
3171;SDS011;1597;51.572;6.992;2023-08-06T10:56:15;9.80;;;8.90;;
3171;SDS011;1597;51.572;6.992;2023-08-06T10:58:48;11.17;;;10.00;;
3171;SDS011;1597;51.572;6.992;2023-08-06T11:01:16;11.27;;;9.70;;
3171;SDS011;1597;51.572;6.992;2023-08-06T11:03:44;10.93;;;9.83;;
3171;SDS011;1597;51.572;6.992;2023-08-06T11:06:16;10.67;;;9.63;;
3171;SDS011;1597;51.572;6.992;2023-08-06T11:08:50;11.37;;;10.17;;
3171;SDS011;1597;51.572;6.992;2023-08-06T11:11:18;10.63;;;9.70;;
3171;SDS011;1597;51.572;6.992;2023-08-06T11:13:46;11.87;;;10.77;;
3171;SDS011;1597;51.572;6.992;2023-08-06T11:16:22;8.93;;;8.07;;
3171;SDS011;1597;51.572;6.992;2023-08-06T11:18:51;12.37;;;10.53;;
3171;SDS011;1597;51.572;6.992;2023-08-06T11:21:22;10.43;;;9.30;;
3171;SDS011;1597;51.572;6.992;2023-08-06T11:23:49;13.47;;;12.17;;
3171;SDS011;1597;51.572;6.992;2023-08-06T11:26:20;13.83;;;12.53;;
3171;SDS011;1597;51.572;6.992;2023-08-06T11:28:48;13.83;;;12.33;;
3171;SDS011;1597;51.572;6.992;2023-08-06T11:31:21;13.40;;;12.20;;
3171;SDS011;1597;51.572;6.992;2023-08-06T11:33:50;17.13;;;14.37;;
3171;SDS011;1597;51.572;6.992;2023-08-06T11:36:29;14.87;;;13.47;;
3171;SDS011;1597;51.572;6.992;2023-08-06T11:39:02;13.40;;;12.10;;
3171;SDS011;1597;51.572;6.992;2023-08-06T11:41:30;14.17;;;12.80;;
3171;SDS011;1597;51.572;6.992;2023-08-06T11:44:03;9.17;;;8.30;;
3171;SDS011;1597;51.572;6.992;2023-08-06T11:46:29;16.17;;;14.37;;
3171;SDS011;1597;51.572;6.992;2023-08-06T11:49:15;12.47;;;11.20;;
3171;SDS011;1597;51.572;6.992;2023-08-06T11:51:41;11.33;;;10.20;;
3171;SDS011;1597;51.572;6.992;2023-08-06T11:54:06;8.73;;;7.83;;
3171;SDS011;1597;51.572;6.992;2023-08-06T11:56:33;7.30;;;6.50;;
3171;SDS011;1597;51.572;6.992;2023-08-06T11:59:00;6.60;;;5.97;;
3171;SDS011;1597;51.572;6.992;2023-08-06T12:01:26;5.10;;;4.33;;
3171;SDS011;1597;51.572;6.992;2023-08-06T12:03:57;4.40;;;4.00;;
3171;SDS011;1597;51.572;6.992;2023-08-06T12:06:29;5.20;;;4.67;;
3171;SDS011;1597;51.572;6.992;2023-08-06T12:08:54;7.93;;;4.70;;
3171;SDS011;1597;51.572;6.992;2023-08-06T12:11:21;4.97;;;4.53;;
3171;SDS011;1597;51.572;6.992;2023-08-06T12:13:54;4.47;;;4.07;;
3171;SDS011;1597;51.572;6.992;2023-08-06T12:16:21;4.57;;;3.93;;
3171;SDS011;1597;51.572;6.992;2023-08-06T12:18:48;4.90;;;3.93;;
3171;SDS011;1597;51.572;6.992;2023-08-06T12:21:14;5.40;;;4.90;;
3171;SDS011;1597;51.572;6.992;2023-08-06T12:23:40;5.33;;;2.77;;
3171;SDS011;1597;51.572;6.992;2023-08-06T12:26:06;3.30;;;3.00;;
3171;SDS011;1597;51.572;6.992;2023-08-06T12:28:32;3.77;;;2.73;;
3171;SDS011;1597;51.572;6.992;2023-08-06T12:30:58;3.13;;;2.83;;
3171;SDS011;1597;51.572;6.992;2023-08-06T12:33:23;4.70;;;3.73;;
3171;SDS011;1597;51.572;6.992;2023-08-06T12:35:49;4.50;;;3.03;;
3171;SDS011;1597;51.572;6.992;2023-08-06T12:38:16;3.00;;;1.77;;
3171;SDS011;1597;51.572;6.992;2023-08-06T12:40:42;1.80;;;1.70;;
3171;SDS011;1597;51.572;6.992;2023-08-06T12:43:08;2.87;;;1.47;;
3171;SDS011;1597;51.572;6.992;2023-08-06T12:45:34;0.93;;;0.83;;
3171;SDS011;1597;51.572;6.992;2023-08-06T12:48:00;3.93;;;1.33;;
3171;SDS011;1597;51.572;6.992;2023-08-06T12:50:25;2.20;;;1.43;;
3171;SDS011;1597;51.572;6.992;2023-08-06T12:52:51;3.67;;;1.87;;
3171;SDS011;1597;51.572;6.992;2023-08-06T12:55:19;4.10;;;1.27;;
3171;SDS011;1597;51.572;6.992;2023-08-06T12:57:45;1.17;;;0.90;;
3171;SDS011;1597;51.572;6.992;2023-08-06T13:00:11;1.40;;;1.30;;
3171;SDS011;1597;51.572;6.992;2023-08-06T13:02:37;1.20;;;1.10;;
3171;SDS011;1597;51.572;6.992;2023-08-06T13:05:04;2.93;;;1.00;;
3171;SDS011;1597;51.572;6.992;2023-08-06T13:07:31;1.23;;;1.10;;
3171;SDS011;1597;51.572;6.992;2023-08-06T13:09:58;4.50;;;1.57;;
3171;SDS011;1597;51.572;6.992;2023-08-06T13:12:24;2.03;;;1.00;;
3171;SDS011;1597;51.572;6.992;2023-08-06T13:14:50;4.73;;;2.50;;
3171;SDS011;1597;51.572;6.992;2023-08-06T13:17:17;4.33;;;1.10;;
3171;SDS011;1597;51.572;6.992;2023-08-06T13:19:43;0.93;;;0.93;;
3171;SDS011;1597;51.572;6.992;2023-08-06T13:22:09;0.93;;;0.90;;
3171;SDS011;1597;51.572;6.992;2023-08-06T13:24:35;2.60;;;1.33;;
3171;SDS011;1597;51.572;6.992;2023-08-06T13:27:01;0.97;;;0.97;;
3171;SDS011;1597;51.572;6.992;2023-08-06T13:29:28;2.47;;;1.33;;
3171;SDS011;1597;51.572;6.992;2023-08-06T13:31:54;2.20;;;1.67;;
3171;SDS011;1597;51.572;6.992;2023-08-06T13:34:20;1.37;;;1.27;;
3171;SDS011;1597;51.572;6.992;2023-08-06T13:36:46;1.73;;;1.53;;
3171;SDS011;1597;51.572;6.992;2023-08-06T13:39:11;2.00;;;1.37;;
3171;SDS011;1597;51.572;6.992;2023-08-06T13:41:38;3.10;;;2.00;;
3171;SDS011;1597;51.572;6.992;2023-08-06T13:44:04;2.73;;;2.20;;
3171;SDS011;1597;51.572;6.992;2023-08-06T13:46:30;2.73;;;2.53;;
3171;SDS011;1597;51.572;6.992;2023-08-06T13:48:56;2.27;;;2.13;;
3171;SDS011;1597;51.572;6.992;2023-08-06T13:51:22;3.53;;;2.83;;
3171;SDS011;1597;51.572;6.992;2023-08-06T13:53:48;2.63;;;2.33;;
3171;SDS011;1597;51.572;6.992;2023-08-06T13:56:14;2.33;;;2.13;;
3171;SDS011;1597;51.572;6.992;2023-08-06T13:58:42;2.50;;;2.30;;
3171;SDS011;1597;51.572;6.992;2023-08-06T14:01:11;3.83;;;3.37;;
3171;SDS011;1597;51.572;6.992;2023-08-06T14:03:39;5.77;;;4.60;;
3171;SDS011;1597;51.572;6.992;2023-08-06T14:06:05;5.50;;;4.60;;
3171;SDS011;1597;51.572;6.992;2023-08-06T14:08:31;4.23;;;3.70;;
3171;SDS011;1597;51.572;6.992;2023-08-06T14:10:56;3.00;;;2.70;;
3171;SDS011;1597;51.572;6.992;2023-08-06T14:13:23;2.60;;;2.40;;
3171;SDS011;1597;51.572;6.992;2023-08-06T14:15:49;15.53;;;8.70;;
3171;SDS011;1597;51.572;6.992;2023-08-06T14:18:15;2.63;;;2.43;;
3171;SDS011;1597;51.572;6.992;2023-08-06T14:20:42;5.60;;;4.70;;
3171;SDS011;1597;51.572;6.992;2023-08-06T14:23:09;5.20;;;3.50;;
3171;SDS011;1597;51.572;6.992;2023-08-06T14:25:35;4.57;;;3.10;;
3171;SDS011;1597;51.572;6.992;2023-08-06T14:28:03;2.43;;;2.23;;
3171;SDS011;1597;51.572;6.992;2023-08-06T14:30:29;2.60;;;2.40;;
3171;SDS011;1597;51.572;6.992;2023-08-06T14:32:54;3.13;;;2.33;;
3171;SDS011;1597;51.572;6.992;2023-08-06T14:35:20;2.77;;;2.57;;
3171;SDS011;1597;51.572;6.992;2023-08-06T14:37:46;2.57;;;2.30;;
3171;SDS011;1597;51.572;6.992;2023-08-06T14:40:13;2.87;;;2.57;;
3171;SDS011;1597;51.572;6.992;2023-08-06T14:42:40;2.80;;;2.60;;
3171;SDS011;1597;51.572;6.992;2023-08-06T14:45:06;2.83;;;2.63;;
3171;SDS011;1597;51.572;6.992;2023-08-06T14:47:32;8.27;;;5.50;;
3171;SDS011;1597;51.572;6.992;2023-08-06T14:49:58;8.67;;;4.10;;
3171;SDS011;1597;51.572;6.992;2023-08-06T14:52:23;5.60;;;4.00;;
3171;SDS011;1597;51.572;6.992;2023-08-06T14:54:50;4.20;;;3.03;;
3171;SDS011;1597;51.572;6.992;2023-08-06T14:57:20;6.67;;;3.20;;
3171;SDS011;1597;51.572;6.992;2023-08-06T14:59:47;3.00;;;2.80;;
3171;SDS011;1597;51.572;6.992;2023-08-06T15:02:15;3.20;;;2.97;;
3171;SDS011;1597;51.572;6.992;2023-08-06T15:04:41;2.37;;;2.17;;
3171;SDS011;1597;51.572;6.992;2023-08-06T15:07:08;2.93;;;2.73;;
3171;SDS011;1597;51.572;6.992;2023-08-06T15:09:35;4.43;;;3.70;;
3171;SDS011;1597;51.572;6.992;2023-08-06T15:12:00;3.00;;;2.80;;
3171;SDS011;1597;51.572;6.992;2023-08-06T15:14:26;4.70;;;3.50;;
3171;SDS011;1597;51.572;6.992;2023-08-06T15:16:52;3.83;;;3.40;;
3171;SDS011;1597;51.572;6.992;2023-08-06T15:19:23;5.20;;;4.63;;
3171;SDS011;1597;51.572;6.992;2023-08-06T15:21:50;3.63;;;3.33;;
3171;SDS011;1597;51.572;6.992;2023-08-06T15:24:16;3.10;;;2.80;;
3171;SDS011;1597;51.572;6.992;2023-08-06T15:26:42;3.17;;;2.40;;
3171;SDS011;1597;51.572;6.992;2023-08-06T15:29:09;4.93;;;3.20;;